Time;durP1;ratioP1;P1;durP2;ratioP2;P2;SDS_P1;SDS_P2;PMS_P1;PMS_P2;Temp;Humidity;BMP_temperature;BMP_pressure;BME280_temperature;BME280_humidity;BME280_pressure;Samples;Min_cycle;Max_cycle;Signal;HPM_P1;HPM_P2
2022/06/27 00:02:17;;;;;;;5.43;2.97;;;23.10;95.40;;;;;;5100330;28;20176;-10
2022/06/27 00:04:43;;;;;;;4.10;3.20;;;23.10;95.40;;;;;;5099960;28;20174;-10
2022/06/27 00:07:11;;;;;;;4.80;3.17;;;23.10;95.50;;;;;;5100706;28;20218;-9
2022/06/27 00:09:37;;;;;;;4.13;3.07;;;23.10;95.40;;;;;;5100207;28;20316;-8
2022/06/27 00:12:04;;;;;;;5.87;3.20;;;23.10;95.40;;;;;;5099520;28;20271;-9
2022/06/27 00:14:29;;;;;;;3.97;3.50;;;23.10;95.40;;;;;;5100754;28;20161;-10
2022/06/27 00:16:55;;;;;;;5.53;3.30;;;23.10;95.40;;;;;;5100159;28;20304;-9
2022/06/27 00:19:21;;;;;;;4.27;3.03;;;23.10;95.50;;;;;;5100448;28;20442;-9
2022/06/27 00:21:46;;;;;;;4.73;3.50;;;23.10;95.50;;;;;;5099599;28;20179;-9
2022/06/27 00:24:12;;;;;;;4.60;2.83;;;23.10;95.60;;;;;;5100236;28;20163;-9
2022/06/27 00:26:38;;;;;;;3.80;3.03;;;23.10;95.70;;;;;;5099783;28;20767;-9
2022/06/27 00:29:04;;;;;;;3.57;3.20;;;23.10;95.70;;;;;;5099568;28;20203;-10
2022/06/27 00:31:30;;;;;;;4.77;3.03;;;23.10;95.70;;;;;;5100195;28;20171;-10
2022/06/27 00:33:58;;;;;;;7.07;3.20;;;23.10;95.70;;;;;;5099693;28;20174;-9
2022/06/27 00:36:24;;;;;;;4.37;3.27;;;23.10;95.70;;;;;;5100339;28;20580;-9
2022/06/27 00:38:50;;;;;;;4.90;3.50;;;23.00;95.70;;;;;;5099078;28;20281;-10
2022/06/27 00:41:15;;;;;;;3.70;3.30;;;23.00;95.70;;;;;;5100158;28;20175;-10
2022/06/27 00:43:45;;;;;;;5.67;3.40;;;23.00;95.70;;;;;;5099209;28;20179;-10
2022/06/27 00:46:12;;;;;;;3.57;3.27;;;23.00;95.90;;;;;;5099631;28;20186;-11
2022/06/27 00:48:38;;;;;;;4.37;3.30;;;23.00;95.80;;;;;;5099564;28;20202;-9
2022/06/27 00:51:04;;;;;;;4.03;2.83;;;23.00;95.80;;;;;;5100537;28;20185;-10
2022/06/27 00:53:32;;;;;;;5.13;3.40;;;23.00;95.80;;;;;;5099892;28;20242;-9
2022/06/27 00:55:58;;;;;;;3.83;3.13;;;23.00;96.10;;;;;;5098996;28;20175;-10
2022/06/27 00:58:24;;;;;;;4.97;3.50;;;23.00;95.80;;;;;;5099535;28;20435;-8
2022/06/27 01:00:50;;;;;;;4.43;3.37;;;23.00;95.80;;;;;;5098857;28;20169;-9
2022/06/27 01:03:16;;;;;;;3.97;3.20;;;23.00;95.90;;;;;;5099101;28;20166;-9
2022/06/27 01:05:51;;;;;;;3.67;3.17;;;23.00;95.90;;;;;;5097508;28;20175;-9
2022/06/27 01:08:21;;;;;;;3.43;3.07;;;23.00;95.90;;;;;;5099167;28;20166;-11
2022/06/27 01:10:47;;;;;;;4.77;3.03;;;23.00;95.90;;;;;;5099329;28;20290;-9
2022/06/27 01:13:13;;;;;;;4.40;3.27;;;23.00;96.00;;;;;;5098716;28;20186;-9
2022/06/27 01:15:40;;;;;;;4.13;3.23;;;22.90;96.00;;;;;;5098929;28;20236;-9
2022/06/27 01:18:07;;;;;;;3.37;3.00;;;22.90;96.10;;;;;;5099006;28;20756;-8
2022/06/27 01:20:36;;;;;;;6.30;3.30;;;22.90;96.10;;;;;;5097903;28;20182;-11
2022/06/27 01:23:02;;;;;;;4.23;3.30;;;22.90;96.20;;;;;;5099431;28;20509;-10
2022/06/27 01:25:27;;;;;;;4.90;3.50;;;22.90;96.20;;;;;;5098734;28;20167;-9
2022/06/27 01:27:53;;;;;;;3.97;3.10;;;22.80;96.20;;;;;;5099302;28;20169;-10
2022/06/27 01:30:28;;;;;;;4.73;2.90;;;22.80;96.30;;;;;;5099161;28;20206;-11
2022/06/27 01:32:54;;;;;;;6.07;3.27;;;22.80;96.30;;;;;;5098748;28;20170;-10
2022/06/27 01:35:19;;;;;;;4.07;3.50;;;22.80;96.50;;;;;;5099242;28;20232;-10
2022/06/27 01:37:45;;;;;;;4.67;3.33;;;22.80;96.80;;;;;;5099462;28;20225;-9
2022/06/27 01:40:14;;;;;;;6.73;3.40;;;22.70;96.70;;;;;;5098880;28;20224;-10
2022/06/27 01:42:43;;;;;;;4.33;3.33;;;22.70;96.80;;;;;;5099441;28;20463;-10
2022/06/27 01:45:09;;;;;;;3.47;3.17;;;22.70;96.80;;;;;;5098154;28;20167;-10
2022/06/27 01:47:35;;;;;;;6.63;3.57;;;22.70;96.70;;;;;;5098743;28;20250;-8
2022/06/27 01:50:01;;;;;;;6.27;3.40;;;22.70;96.80;;;;;;5098589;28;20304;-9
2022/06/27 01:52:28;;;;;;;6.30;3.20;;;22.70;96.70;;;;;;5098209;28;20171;-10
2022/06/27 01:54:55;;;;;;;5.53;3.70;;;22.70;96.80;;;;;;5097488;28;20167;-9
2022/06/27 01:57:22;;;;;;;3.57;3.13;;;22.80;96.70;;;;;;5098674;28;20261;-11
2022/06/27 01:59:50;;;;;;;7.07;3.53;;;22.80;96.90;;;;;;5097827;28;20269;-11
2022/06/27 02:02:17;;;;;;;3.90;3.47;;;22.80;96.90;;;;;;5098255;28;20167;-9
2022/06/27 02:04:43;;;;;;;4.57;3.33;;;22.80;96.70;;;;;;5098384;28;20167;-9
2022/06/27 02:07:11;;;;;;;5.10;3.20;;;22.80;96.80;;;;;;5098094;28;20186;-11
2022/06/27 02:09:36;;;;;;;4.60;3.67;;;22.80;96.70;;;;;;5098834;28;20214;-11
2022/06/27 02:12:18;;;;;;;5.60;3.40;;;22.80;96.80;;;;;;5098610;28;20155;-9
2022/06/27 02:14:52;;;;;;;4.70;3.30;;;22.80;96.70;;;;;;5098311;28;20162;-11
2022/06/27 02:17:19;;;;;;;6.13;3.30;;;22.80;96.80;;;;;;5097806;28;20161;-10
2022/06/27 02:19:45;;;;;;;6.73;3.47;;;22.70;96.80;;;;;;5098114;28;20253;-9
2022/06/27 02:22:11;;;;;;;4.03;3.60;;;22.70;96.90;;;;;;5097316;28;20448;-10
2022/06/27 02:24:37;;;;;;;4.77;3.53;;;22.70;97.10;;;;;;5096980;28;20473;-11
2022/06/27 02:27:04;;;;;;;4.10;3.23;;;22.70;97.00;;;;;;5098034;28;20175;-8
2022/06/27 02:29:29;;;;;;;7.03;3.50;;;22.70;97.00;;;;;;5098259;28;20214;-9
2022/06/27 02:31:58;;;;;;;3.60;3.30;;;22.70;97.10;;;;;;5097871;28;20531;-10
2022/06/27 02:34:23;;;;;;;4.53;3.43;;;22.70;97.10;;;;;;5097020;28;20228;-8
2022/06/27 02:36:50;;;;;;;6.50;3.80;;;22.70;97.20;;;;;;5097652;28;20170;-10
2022/06/27 02:39:20;;;;;;;4.70;3.70;;;22.70;97.30;;;;;;5097509;28;20228;-9
2022/06/27 02:41:48;;;;;;;6.07;4.00;;;22.70;97.20;;;;;;5097872;28;20178;-9
2022/06/27 02:44:14;;;;;;;5.03;4.43;;;22.70;97.20;;;;;;5097235;28;20206;-9
2022/06/27 02:46:41;;;;;;;4.57;3.83;;;22.70;97.10;;;;;;5097048;28;20174;-10
2022/06/27 02:49:08;;;;;;;5.03;3.83;;;22.70;97.10;;;;;;5096905;28;20191;-9
2022/06/27 02:51:46;;;;;;;8.80;3.87;;;22.70;97.40;;;;;;5097770;28;20163;-11
2022/06/27 02:54:18;;;;;;;4.90;4.50;;;22.70;97.20;;;;;;5096977;28;20336;-9
2022/06/27 02:56:54;;;;;;;5.97;4.47;;;22.70;97.20;;;;;;5096437;28;20168;-11
2022/06/27 02:59:26;;;;;;;6.93;4.10;;;22.70;97.10;;;;;;5097802;28;20180;-9
2022/06/27 03:01:55;;;;;;;5.60;3.77;;;22.70;97.10;;;;;;5097035;28;20224;-11
2022/06/27 03:04:21;;;;;;;5.50;3.60;;;22.70;97.10;;;;;;5097606;28;20558;-10
2022/06/27 03:06:49;;;;;;;5.70;4.00;;;22.70;97.10;;;;;;5101418;28;20174;-11
2022/06/27 03:09:15;;;;;;;3.93;3.53;;;22.70;97.00;;;;;;5101706;28;20535;-9
2022/06/27 03:11:41;;;;;;;5.47;4.30;;;22.70;97.10;;;;;;5101634;28;20242;-9
2022/06/27 03:14:08;;;;;;;4.83;4.03;;;22.70;97.20;;;;;;5101006;28;20282;-9
2022/06/27 03:16:34;;;;;;;5.00;4.47;;;22.70;97.20;;;;;;5101410;28;20174;-9
2022/06/27 03:19:00;;;;;;;4.90;4.27;;;22.70;97.20;;;;;;5101091;28;20532;-9
2022/06/27 03:21:26;;;;;;;5.07;3.93;;;22.70;97.20;;;;;;5100980;28;20197;-10
2022/06/27 03:23:51;;;;;;;5.77;5.07;;;22.70;97.30;;;;;;5101059;28;20174;-9
2022/06/27 03:26:18;;;;;;;5.63;4.60;;;22.70;97.20;;;;;;5101201;28;20219;-11
2022/06/27 03:28:45;;;;;;;5.90;4.60;;;22.70;97.20;;;;;;5100918;28;20202;-10
2022/06/27 03:31:11;;;;;;;4.90;3.60;;;22.70;97.20;;;;;;5101011;28;20167;-9
2022/06/27 03:33:37;;;;;;;7.20;5.37;;;22.70;97.20;;;;;;5101120;28;20163;-9
2022/06/27 03:36:04;;;;;;;6.43;5.53;;;22.70;97.20;;;;;;5101875;28;20159;-10
2022/06/27 03:38:30;;;;;;;3.87;3.47;;;22.70;97.20;;;;;;5100716;28;20457;-10
2022/06/27 03:40:57;;;;;;;5.77;5.27;;;22.70;97.50;;;;;;5100369;28;20551;-10
2022/06/27 03:43:23;;;;;;;7.77;5.27;;;22.70;97.20;;;;;;5100761;28;20236;-9
2022/06/27 03:45:49;;;;;;;7.97;6.07;;;22.60;97.40;;;;;;5100538;28;20335;-10
2022/06/27 03:50:59;;;;;;;3.70;2.33;;;22.60;97.40;;;;;;5100779;28;20247;-10
2022/06/27 03:53:25;;;;;;;5.70;5.10;;;22.60;97.50;;;;;;5101143;28;20166;-9
2022/06/27 03:55:50;;;;;;;6.63;5.70;;;22.70;97.30;;;;;;5099655;28;20179;-10
2022/06/27 03:58:16;;;;;;;4.23;3.40;;;22.70;97.30;;;;;;5100838;28;20661;-10
2022/06/27 04:00:42;;;;;;;5.70;5.07;;;22.70;97.20;;;;;;5100056;28;20206;-9
2022/06/27 04:03:08;;;;;;;5.30;4.80;;;22.70;97.10;;;;;;5099980;28;20559;-9
2022/06/27 04:05:34;;;;;;;6.53;4.97;;;22.70;97.00;;;;;;5098990;28;20185;-10
2022/06/27 04:08:01;;;;;;;10.03;5.27;;;22.70;97.00;;;;;;5100379;28;20213;-10
2022/06/27 04:10:26;;;;;;;6.07;4.93;;;22.70;97.10;;;;;;5099393;28;20226;-11
2022/06/27 04:12:52;;;;;;;5.20;4.77;;;22.70;97.10;;;;;;5100443;28;20274;-8
2022/06/27 04:15:18;;;;;;;6.20;5.20;;;22.70;97.20;;;;;;5100175;28;20190;-10
2022/06/27 04:17:44;;;;;;;6.40;4.83;;;22.70;97.20;;;;;;5099586;28;20585;-9
2022/06/27 04:20:11;;;;;;;6.33;4.90;;;22.60;97.20;;;;;;5098878;28;20204;-9
2022/06/27 04:22:37;;;;;;;4.93;4.43;;;22.60;97.30;;;;;;5099493;28;20164;-10
2022/06/27 04:25:04;;;;;;;9.00;5.10;;;22.60;97.40;;;;;;5099290;28;20175;-9
2022/06/27 04:27:30;;;;;;;5.10;4.37;;;22.60;97.40;;;;;;5099382;28;20167;-10
2022/06/27 04:29:57;;;;;;;5.47;4.53;;;22.60;97.50;;;;;;5099328;28;20217;-10
2022/06/27 04:32:25;;;;;;;5.17;4.17;;;22.60;97.70;;;;;;5099064;28;20332;-9
2022/06/27 04:34:50;;;;;;;7.23;4.73;;;22.60;97.70;;;;;;5100026;28;20745;-8
2022/06/27 04:37:16;;;;;;;6.70;4.90;;;22.60;97.60;;;;;;5099041;28;20258;-10
2022/06/27 04:39:43;;;;;;;7.37;4.80;;;22.50;97.60;;;;;;5099886;28;20186;-10
2022/06/27 04:42:09;;;;;;;6.23;4.90;;;22.50;97.90;;;;;;5099947;28;20555;-10
2022/06/27 04:44:36;;;;;;;5.73;4.93;;;22.50;97.70;;;;;;5099691;28;20182;-11
2022/06/27 04:47:07;;;;;;;5.47;4.57;;;22.50;98.10;;;;;;5099586;28;20171;-9
2022/06/27 04:49:33;;;;;;;6.27;4.90;;;22.50;98.00;;;;;;5098977;28;20249;-9
2022/06/27 04:51:59;;;;;;;4.87;4.47;;;22.50;98.00;;;;;;5098650;28;20186;-10
2022/06/27 04:54:26;;;;;;;6.67;5.13;;;22.50;98.20;;;;;;5098780;28;20178;-11
2022/06/27 04:56:54;;;;;;;6.17;4.87;;;22.50;98.00;;;;;;5098499;28;20449;-8
2022/06/27 04:59:21;;;;;;;6.80;5.23;;;22.50;98.00;;;;;;5099034;28;20183;-9
2022/06/27 05:01:50;;;;;;;6.80;4.97;;;22.50;98.10;;;;;;5098179;28;20189;-9
2022/06/27 05:04:20;;;;;;;6.63;5.43;;;22.50;98.00;;;;;;5098227;28;20178;-10
2022/06/27 05:06:47;;;;;;;6.23;5.10;;;22.50;98.00;;;;;;5098545;28;20183;-10
2022/06/27 05:09:14;;;;;;;6.83;4.97;;;22.60;97.90;;;;;;5097690;28;20306;-12
2022/06/27 05:11:40;;;;;;;4.90;4.40;;;22.60;97.90;;;;;;5099183;28;20567;-9
2022/06/27 05:14:07;;;;;;;6.53;4.33;;;22.60;97.90;;;;;;5097858;28;20338;-10
2022/06/27 05:16:35;;;;;;;6.10;5.50;;;22.60;97.80;;;;;;5098802;28;20177;-9
2022/06/27 05:19:01;;;;;;;6.00;5.40;;;22.60;97.70;;;;;;5098803;28;20202;-10
2022/06/27 05:21:27;;;;;;;6.47;5.23;;;22.60;97.70;;;;;;5098062;28;20175;-10
2022/06/27 05:23:52;;;;;;;6.00;5.27;;;22.60;98.00;;;;;;5098205;28;20174;-9
2022/06/27 05:26:18;;;;;;;4.77;4.27;;;22.60;97.80;;;;;;5098620;28;20230;-10
2022/06/27 05:28:44;;;;;;;7.47;5.43;;;22.60;98.00;;;;;;5097173;28;20182;-9
2022/06/27 05:31:10;;;;;;;3.97;3.63;;;22.60;97.90;;;;;;5098607;28;20564;-9
2022/06/27 05:33:36;;;;;;;5.63;5.10;;;22.60;97.90;;;;;;5097354;28;20213;-10
2022/06/27 05:36:04;;;;;;;3.83;3.47;;;22.60;98.40;;;;;;5097053;28;20158;-9
2022/06/27 05:38:31;;;;;;;2.87;2.47;;;22.60;98.30;;;;;;5097703;28;20160;-9
2022/06/27 05:40:57;;;;;;;4.90;4.20;;;22.60;98.50;;;;;;5097245;28;20220;-11
2022/06/27 05:43:23;;;;;;;4.80;3.80;;;22.60;98.50;;;;;;5097178;28;20175;-10
2022/06/27 05:45:53;;;;;;;4.23;3.83;;;22.60;99.30;;;;;;5096416;28;20240;-10
2022/06/27 05:48:19;;;;;;;4.00;3.57;;;22.60;98.70;;;;;;5096557;28;20182;-11
2022/06/27 05:50:45;;;;;;;2.67;2.33;;;22.80;98.70;;;;;;5096605;28;20681;-10
2022/06/27 05:53:10;;;;;;;3.33;2.90;;;22.90;97.80;;;;;;5095827;28;20178;-9
2022/06/27 05:55:38;;;;;;;3.60;3.30;;;23.00;98.00;;;;;;5097226;28;20170;-9
2022/06/27 05:58:04;;;;;;;4.80;2.53;;;23.10;98.20;;;;;;5097071;28;20265;-11
2022/06/27 06:00:30;;;;;;;4.03;2.80;;;23.10;97.80;;;;;;5097795;28;20186;-9
2022/06/27 06:02:57;;;;;;;3.60;3.30;;;23.10;97.30;;;;;;5096529;28;20180;-10
2022/06/27 06:05:24;;;;;;;3.53;2.80;;;23.10;98.30;;;;;;5097356;28;20155;-8
2022/06/27 06:07:51;;;;;;;4.70;3.57;;;23.10;97.60;;;;;;5096520;28;20551;-10
2022/06/27 06:10:17;;;;;;;3.33;2.60;;;23.10;98.00;;;;;;5097330;28;20196;-10
2022/06/27 06:12:43;;;;;;;3.60;3.30;;;23.10;97.40;;;;;;5097837;28;20182;-10
2022/06/27 06:15:09;;;;;;;3.30;3.00;;;23.20;97.80;;;;;;5096345;28;20543;-9
2022/06/27 06:17:37;;;;;;;3.93;3.20;;;23.20;97.80;;;;;;5097619;28;20189;-9
2022/06/27 06:20:05;;;;;;;4.70;2.80;;;23.20;98.20;;;;;;5096297;28;20174;-8
2022/06/27 06:22:31;;;;;;;5.33;3.13;;;23.20;99.00;;;;;;5096872;28;20239;-10
2022/06/27 06:24:57;;;;;;;6.33;3.10;;;23.30;99.10;;;;;;5097137;28;20450;-9
2022/06/27 06:27:23;;;;;;;4.57;3.17;;;23.30;99.80;;;;;;5096525;28;20177;-9
2022/06/27 06:29:49;;;;;;;5.57;3.67;;;23.30;99.20;;;;;;5096761;28;20213;-9
2022/06/27 06:32:15;;;;;;;4.97;3.10;;;23.40;99.00;;;;;;5097001;28;20174;-9
2022/06/27 06:34:42;;;;;;;5.13;3.00;;;23.30;98.60;;;;;;5096396;28;20156;-10
2022/06/27 06:37:09;;;;;;;6.00;4.40;;;23.30;98.60;;;;;;5096273;28;20233;-10
2022/06/27 06:39:36;;;;;;;5.67;3.17;;;23.30;98.80;;;;;;5096315;28;20171;-9
2022/06/27 06:42:03;;;;;;;6.53;3.83;;;23.40;98.40;;;;;;5096113;28;20556;-9
2022/06/27 06:44:28;;;;;;;7.53;6.63;;;23.40;98.30;;;;;;5095961;28;20258;-9
2022/06/27 06:46:55;;;;;;;6.43;4.43;;;23.30;99.70;;;;;;5095812;28;20290;-9
2022/06/27 06:49:21;;;;;;;8.80;7.60;;;23.30;98.60;;;;;;5095209;28;20222;-10
2022/06/27 06:51:50;;;;;;;10.30;8.87;;;23.30;98.70;;;;;;5096472;28;20207;-9
2022/06/27 06:54:17;;;;;;;9.47;7.57;;;23.30;98.50;;;;;;5096857;28;20189;-9
2022/06/27 06:56:49;;;;;;;8.67;7.77;;;23.30;98.50;;;;;;5096150;28;20178;-10
2022/06/27 06:59:16;;;;;;;9.43;7.93;;;23.30;98.60;;;;;;5096218;28;20169;-9
2022/06/27 07:01:43;;;;;;;5.83;5.23;;;23.30;98.60;;;;;;5096268;28;20149;-10
2022/06/27 07:04:11;;;;;;;5.60;4.83;;;23.30;98.40;;;;;;5095529;28;20592;-9
2022/06/27 07:06:38;;;;;;;10.33;8.23;;;23.30;98.20;;;;;;5095461;28;20192;-10
2022/06/27 07:09:04;;;;;;;6.43;4.77;;;23.30;98.20;;;;;;5094222;28;20202;-9
2022/06/27 07:11:40;;;;;;;4.03;2.90;;;23.30;98.20;;;;;;5095784;28;20151;-12
2022/06/27 07:14:06;;;;;;;5.30;4.80;;;23.30;98.00;;;;;;5095663;28;20239;-9
2022/06/27 07:16:31;;;;;;;6.20;4.97;;;23.30;97.80;;;;;;5095609;28;20257;-9
2022/06/27 07:19:00;;;;;;;9.03;7.57;;;23.40;98.00;;;;;;5095398;28;20568;-10
2022/06/27 07:21:28;;;;;;;10.43;8.47;;;23.40;98.20;;;;;;5095914;28;20598;-8
2022/06/27 07:23:55;;;;;;;9.03;7.67;;;23.30;98.50;;;;;;5095666;28;20175;-8
2022/06/27 07:26:22;;;;;;;6.20;5.63;;;23.30;98.60;;;;;;5095279;28;20179;-10
2022/06/27 07:28:48;;;;;;;8.67;7.57;;;23.30;98.40;;;;;;5095737;28;20240;-10
2022/06/27 07:31:14;;;;;;;10.90;8.67;;;23.30;98.40;;;;;;5096631;28;20244;-10
2022/06/27 07:33:48;;;;;;;11.30;9.43;;;23.30;98.30;;;;;;5095592;28;20178;-10
2022/06/27 07:36:16;;;;;;;5.17;4.47;;;23.30;98.40;;;;;;5095625;28;20156;-9
2022/06/27 07:38:43;;;;;;;11.43;9.33;;;23.30;98.40;;;;;;5094948;28;20175;-11
2022/06/27 07:41:09;;;;;;;11.07;7.33;;;23.30;98.40;;;;;;5095150;28;20168;-9
2022/06/27 07:43:35;;;;;;;6.70;4.40;;;23.30;98.60;;;;;;5095225;28;20202;-9
2022/06/27 07:46:02;;;;;;;13.27;9.60;;;23.30;98.10;;;;;;5094889;28;20614;-9
2022/06/27 07:48:29;;;;;;;12.13;8.90;;;23.30;98.40;;;;;;5094983;28;20177;-9
2022/06/27 07:50:56;;;;;;;7.50;6.00;;;23.30;98.40;;;;;;5094511;28;20274;-10
2022/06/27 07:53:23;;;;;;;10.17;9.10;;;23.30;98.30;;;;;;5097293;28;20220;-9
2022/06/27 07:56:00;;;;;;;10.47;9.30;;;23.30;98.40;;;;;;5097194;28;20175;-11
2022/06/27 07:58:33;;;;;;;11.00;9.30;;;23.30;98.60;;;;;;5097118;28;20171;-9
2022/06/27 08:01:05;;;;;;;9.03;8.13;;;23.30;98.50;;;;;;5098176;28;20175;-9
2022/06/27 08:03:40;;;;;;;10.60;9.50;;;23.30;98.40;;;;;;5096273;28;20175;-9
2022/06/27 08:06:18;;;;;;;10.50;7.03;;;23.30;98.60;;;;;;5096434;28;20247;-9
2022/06/27 08:09:05;;;;;;;6.00;4.70;;;23.30;98.00;;;;;;5096819;28;20190;-9
2022/06/27 08:11:36;;;;;;;9.00;7.90;;;23.30;97.90;;;;;;5098537;28;20595;-9
2022/06/27 08:14:06;;;;;;;10.70;9.60;;;23.30;98.40;;;;;;5098302;28;20159;-11
2022/06/27 08:16:34;;;;;;;13.17;10.47;;;23.40;98.30;;;;;;5097641;28;20203;-9
2022/06/27 08:19:00;;;;;;;7.60;6.87;;;23.30;98.60;;;;;;5098170;28;20187;-10
2022/06/27 08:21:27;;;;;;;5.17;4.70;;;23.40;98.30;;;;;;5097492;28;20181;-10
2022/06/27 08:24:00;;;;;;;5.27;4.60;;;23.40;97.90;;;;;;5097440;28;20191;-9
2022/06/27 08:26:28;;;;;;;14.13;11.70;;;23.40;98.30;;;;;;5097365;28;20194;-8
2022/06/27 08:28:55;;;;;;;21.87;14.00;;;23.40;98.60;;;;;;5097293;28;20176;-9
2022/06/27 08:31:21;;;;;;;4.50;4.10;;;23.40;98.30;;;;;;5097838;28;20159;-9
2022/06/27 08:33:50;;;;;;;7.00;6.30;;;23.50;97.90;;;;;;5097344;28;20174;-9
2022/06/27 08:36:17;;;;;;;10.83;9.70;;;23.50;97.80;;;;;;5097901;28;20165;-8
2022/06/27 08:38:46;;;;;;;17.03;15.10;;;23.50;97.80;;;;;;5097281;28;20554;-9
2022/06/27 08:41:12;;;;;;;6.13;5.53;;;23.50;97.70;;;;;;5097705;28;20185;-9
2022/06/27 08:43:40;;;;;;;9.43;8.50;;;23.60;97.80;;;;;;5097564;28;20170;-9
2022/06/27 08:46:08;;;;;;;10.43;9.37;;;23.60;97.80;;;;;;5097177;28;20200;-10
2022/06/27 08:48:37;;;;;;;25.73;19.43;;;23.50;97.80;;;;;;5097323;28;20777;-9
2022/06/27 08:51:06;;;;;;;22.33;18.40;;;23.60;97.60;;;;;;5097839;28;20259;-9
2022/06/27 08:53:33;;;;;;;11.10;9.23;;;23.50;98.40;;;;;;5096509;28;20213;-9
2022/06/27 08:55:59;;;;;;;19.73;17.67;;;23.50;98.10;;;;;;5097792;28;20193;-9
2022/06/27 08:58:27;;;;;;;22.87;19.67;;;23.50;98.60;;;;;;5096408;28;20261;-8
2022/06/27 09:00:53;;;;;;;26.23;21.50;;;23.50;99.10;;;;;;5097038;28;20175;-9
2022/06/27 09:03:23;;;;;;;21.30;18.13;;;23.50;99.10;;;;;;5096212;28;20201;-10
2022/06/27 09:06:04;;;;;;;19.00;15.97;;;23.50;98.70;;;;;;5082842;28;20180;-10
2022/06/27 09:08:36;;;;;;;14.67;11.60;;;23.50;99.00;;;;;;5077516;28;20332;-9
2022/06/27 09:11:08;;;;;;;13.17;11.87;;;23.40;98.40;;;;;;5076941;28;20473;-9
2022/06/27 09:13:34;;;;;;;12.83;11.50;;;23.40;98.40;;;;;;5076290;28;20168;-9
2022/06/27 09:16:02;;;;;;;16.67;13.63;;;23.50;98.30;;;;;;5077156;28;20172;-9
2022/06/27 09:18:29;;;;;;;11.00;9.30;;;23.50;98.30;;;;;;5076195;28;20179;-9
2022/06/27 09:20:57;;;;;;;17.07;14.83;;;23.50;98.60;;;;;;5075841;28;20176;-9
2022/06/27 09:23:41;;;;;;;15.60;13.77;;;23.50;98.20;;;;;;5076956;28;20171;-9
2022/06/27 09:26:13;;;;;;;16.37;13.73;;;23.50;99.00;;;;;;5076393;28;20190;-9
2022/06/27 09:28:55;;;;;;;10.53;9.43;;;23.50;98.80;;;;;;5076755;28;20281;-10
2022/06/27 09:31:28;;;;;;;11.63;10.13;;;23.40;98.90;;;;;;5076863;28;20199;-9
2022/06/27 09:34:16;;;;;;;15.57;13.43;;;23.40;98.80;;;;;;5076792;28;20478;-8
2022/06/27 09:36:52;;;;;;;17.10;13.70;;;23.40;99.20;;;;;;5075774;28;20214;-9
2022/06/27 09:39:31;;;;;;;15.80;13.80;;;23.40;98.80;;;;;;5076708;28;20256;-11
2022/06/27 09:42:01;;;;;;;16.17;13.37;;;23.40;98.90;;;;;;5076231;28;20168;-9
2022/06/27 09:44:38;;;;;;;16.83;14.27;;;23.40;99.50;;;;;;5076884;28;20552;-9
2022/06/27 09:47:11;;;;;;;14.93;13.30;;;23.40;99.20;;;;;;5076580;28;20164;-8
2022/06/27 09:49:41;;;;;;;13.70;11.23;;;23.40;99.60;;;;;;5076053;28;20582;-9
2022/06/27 09:52:17;;;;;;;11.93;10.73;;;23.40;99.20;;;;;;5075739;28;20574;-10
2022/06/27 09:54:45;;;;;;;16.40;14.07;;;23.50;98.40;;;;;;5076076;28;20578;-9
2022/06/27 09:57:12;;;;;;;14.87;13.27;;;23.50;98.90;;;;;;5076038;28;20261;-9
2022/06/27 09:59:39;;;;;;;9.13;8.07;;;23.50;99.30;;;;;;5074662;28;20171;-10
2022/06/27 10:02:06;;;;;;;13.80;12.40;;;23.50;98.60;;;;;;5075623;28;20171;-9
2022/06/27 10:04:34;;;;;;;15.30;12.30;;;23.50;98.90;;;;;;5075242;28;20211;-8
2022/06/27 10:07:02;;;;;;;10.03;9.03;;;23.50;99.00;;;;;;5075944;28;20182;-10
2022/06/27 10:09:30;;;;;;;12.17;10.50;;;23.60;99.80;;;;;;5075078;28;20215;-9
2022/06/27 10:12:27;;;;;;;11.90;8.53;;;23.60;99.40;;;;;;5074787;28;20189;-10
2022/06/27 10:15:13;;;;;;;11.70;10.60;;;23.60;99.40;;;;;;5074699;28;20482;-10
2022/06/27 10:17:43;;;;;;;12.23;10.93;;;23.60;99.80;;;;;;5074581;28;20279;-9
2022/06/27 10:20:20;;;;;;;13.37;10.43;;;23.60;99.20;;;;;;5075134;28;20424;-9
2022/06/27 10:23:09;;;;;;;11.33;10.20;;;23.60;99.10;;;;;;5075020;28;20173;-9
2022/06/27 10:25:36;;;;;;;11.67;10.47;;;23.60;99.40;;;;;;5066489;28;20181;-9
2022/06/27 10:28:09;;;;;;;6.13;5.57;;;23.70;99.40;;;;;;5074802;28;20178;-9
2022/06/27 10:30:42;;;;;;;6.33;5.73;;;23.80;98.10;;;;;;5074798;28;20206;-9
2022/06/27 10:33:31;;;;;;;6.20;5.60;;;23.90;97.90;;;;;;5074355;28;20232;-11
2022/06/27 10:36:02;;;;;;;6.83;6.17;;;23.90;97.50;;;;;;5069542;28;20209;-9
2022/06/27 10:38:45;;;;;;;9.37;8.07;;;24.00;96.70;;;;;;5074739;28;20163;-10
2022/06/27 10:41:31;;;;;;;8.53;7.30;;;24.00;98.90;;;;;;5075580;28;20167;-9
2022/06/27 10:43:59;;;;;;;6.07;5.10;;;24.00;96.90;;;;;;5063064;28;20244;-9
2022/06/27 10:46:25;;;;;;;5.73;5.23;;;24.10;96.30;;;;;;5075821;28;20191;-10
2022/06/27 10:48:51;;;;;;;5.90;5.30;;;24.10;95.80;;;;;;5074234;28;20194;-11
2022/06/27 10:51:32;;;;;;;9.23;8.33;;;24.10;95.50;;;;;;5074896;28;20198;-8
2022/06/27 10:54:06;;;;;;;7.77;7.07;;;24.20;96.40;;;;;;5074748;28;20247;-9
2022/06/27 10:56:33;;;;;;;6.40;5.90;;;24.20;96.30;;;;;;5075289;28;20178;-9
2022/06/27 10:59:01;;;;;;;6.07;5.57;;;24.20;96.10;;;;;;5074581;28;20260;-10
2022/06/27 11:01:28;;;;;;;7.03;6.43;;;24.20;95.60;;;;;;5073447;28;20178;-9
2022/06/27 11:03:55;;;;;;;7.30;6.63;;;24.20;95.40;;;;;;5075284;28;20172;-9
2022/06/27 11:06:22;;;;;;;8.70;7.90;;;24.30;95.30;;;;;;5075111;28;20153;-9
2022/06/27 11:08:50;;;;;;;6.37;5.87;;;24.30;96.70;;;;;;5074700;28;20455;-9
2022/06/27 11:11:21;;;;;;;6.40;5.80;;;24.20;95.40;;;;;;5075094;28;20301;-9
2022/06/27 11:13:55;;;;;;;8.17;6.70;;;24.30;95.80;;;;;;5074220;28;20266;-9
2022/06/27 11:16:31;;;;;;;10.60;8.37;;;24.30;95.20;;;;;;5074927;28;20549;-11
2022/06/27 11:19:03;;;;;;;14.67;13.17;;;24.30;97.30;;;;;;5075205;28;20158;-10
2022/06/27 11:21:34;;;;;;;8.33;7.53;;;24.30;98.70;;;;;;5075416;28;20254;-10
2022/06/27 11:24:11;;;;;;;14.53;12.70;;;24.20;96.80;;;;;;5075549;28;20239;-10
2022/06/27 11:26:48;;;;;;;6.97;6.27;;;24.20;97.80;;;;;;5076634;28;20191;-9
2022/06/27 11:32:06;;;;;;;14.33;11.57;;;24.20;97.30;;;;;;5078367;28;20179;-9
2022/06/27 11:34:36;;;;;;;9.73;8.40;;;24.20;97.90;;;;;;5078251;28;20215;-11
2022/06/27 11:37:08;;;;;;;12.47;9.90;;;24.30;98.30;;;;;;5078479;28;20178;-9
2022/06/27 11:39:34;;;;;;;12.23;11.03;;;24.30;97.50;;;;;;5078195;28;20207;-9
2022/06/27 11:42:05;;;;;;;15.40;13.63;;;24.30;96.70;;;;;;5078945;28;20463;-10
2022/06/27 11:44:31;;;;;;;11.10;9.97;;;24.30;97.30;;;;;;5078203;28;20229;-10
2022/06/27 11:47:08;;;;;;;10.93;9.93;;;24.30;97.70;;;;;;5079082;28;20187;-9
2022/06/27 11:49:38;;;;;;;19.37;17.43;;;24.30;96.20;;;;;;5077396;28;20264;-9
2022/06/27 11:52:07;;;;;;;16.83;15.17;;;24.30;98.50;;;;;;5078147;28;20176;-10
2022/06/27 11:54:45;;;;;;;18.23;16.40;;;24.30;97.50;;;;;;5077838;28;20168;-9
2022/06/27 11:57:26;;;;;;;12.90;11.60;;;24.30;98.20;;;;;;5078541;28;20508;-10
2022/06/27 11:59:54;;;;;;;17.30;15.67;;;24.30;96.80;;;;;;5078205;28;20210;-10
2022/06/27 12:02:34;;;;;;;21.43;19.23;;;24.20;97.30;;;;;;5076560;28;20563;-8
2022/06/27 12:05:08;;;;;;;13.93;12.50;;;24.30;98.20;;;;;;5077077;28;20202;-10
2022/06/27 12:07:56;;;;;;;21.63;18.07;;;24.30;97.20;;;;;;5077729;28;20182;-10
2022/06/27 12:11:16;;;;;;;16.73;14.87;;;24.30;97.40;;;;;;5078123;28;20584;-9
2022/06/27 12:13:32;;;;;;;24.87;20.87;;;24.30;98.50;;;;;;5078046;28;20226;-9
2022/06/27 12:16:00;;;;;;;19.50;17.33;;;24.30;98.10;;;;;;5078344;28;20914;-9
2022/06/27 12:18:41;;;;;;;22.07;19.57;;;24.30;99.20;;;;;;5077638;28;20225;-8
2022/06/27 12:21:08;;;;;;;21.40;19.30;;;24.30;98.80;;;;;;5077447;28;20655;-10
2022/06/27 12:23:34;;;;;;;21.23;19.07;;;24.30;98.70;;;;;;5077063;28;20229;-9
2022/06/27 12:26:02;;;;;;;14.33;12.97;;;24.30;99.90;;;;;;5076342;28;20187;-10
2022/06/27 12:28:28;;;;;;;9.47;8.63;;;24.30;97.10;;;;;;5078397;28;20491;-9
2022/06/27 12:30:53;;;;;;;10.80;9.70;;;24.40;96.10;;;;;;5077922;28;20187;-11
2022/06/27 12:33:19;;;;;;;9.60;8.60;;;24.40;97.30;;;;;;5077791;28;20181;-10
2022/06/27 12:35:45;;;;;;;18.73;15.13;;;24.50;95.50;;;;;;5077396;28;20715;-10
2022/06/27 12:38:11;;;;;;;11.13;9.13;;;24.50;96.50;;;;;;5076901;28;20160;-9
2022/06/27 12:40:37;;;;;;;9.93;9.03;;;24.50;94.70;;;;;;5076453;28;20776;-12
2022/06/27 12:43:06;;;;;;;9.77;8.90;;;24.50;94.00;;;;;;5077403;28;20320;-10
2022/06/27 12:45:33;;;;;;;16.47;14.87;;;24.60;94.00;;;;;;5075280;28;20592;-10
2022/06/27 12:47:59;;;;;;;13.97;12.57;;;24.60;93.80;;;;;;5077461;28;20554;-9
2022/06/27 12:50:32;;;;;;;16.03;13.60;;;24.60;95.80;;;;;;5077070;28;20206;-9
2022/06/27 12:52:58;;;;;;;10.80;9.80;;;24.70;95.60;;;;;;5075506;28;20218;-9
2022/06/27 12:55:23;;;;;;;11.27;10.27;;;24.70;93.60;;;;;;5076765;28;20183;-10
2022/06/27 12:57:49;;;;;;;10.77;9.67;;;24.70;93.20;;;;;;5076431;28;20164;-11
2022/06/27 13:00:20;;;;;;;10.30;9.40;;;24.80;93.20;;;;;;5075066;28;20178;-10
2022/06/27 13:02:46;;;;;;;10.90;9.90;;;24.80;93.30;;;;;;5076396;28;20627;-9